sensor_id;sensor_type;location;lat;lon;timestamp;pressure;altitude;pressure_sealevel;temperature;humidity
12775;BME280;6451;42.630;23.382;2022-09-02T00:02:05;94145.50;;;18.57;100.00
12775;BME280;6451;42.630;23.382;2022-09-02T00:04:32;94157.56;;;18.77;100.00
12775;BME280;6451;42.630;23.382;2022-09-02T00:06:59;94146.63;;;18.70;100.00
12775;BME280;6451;42.630;23.382;2022-09-02T00:09:26;94152.47;;;18.79;100.00
12775;BME280;6451;42.630;23.382;2022-09-02T00:11:54;94164.25;;;18.76;100.00
12775;BME280;6451;42.630;23.382;2022-09-02T00:14:24;94154.38;;;18.86;100.00
12775;BME280;6451;42.630;23.382;2022-09-02T00:16:53;94154.38;;;18.86;100.00
12775;BME280;6451;42.630;23.382;2022-09-02T00:19:22;94148.50;;;18.84;100.00
12775;BME280;6451;42.630;23.382;2022-09-02T00:21:50;94157.09;;;18.89;100.00
12775;BME280;6451;42.630;23.382;2022-09-02T00:24:18;94156.28;;;18.93;100.00
12775;BME280;6451;42.630;23.382;2022-09-02T00:26:45;94155.16;;;18.86;100.00
12775;BME280;6451;42.630;23.382;2022-09-02T00:29:13;94159.44;;;18.95;100.00
12775;BME280;6451;42.630;23.382;2022-09-02T00:31:40;94153.59;;;18.85;100.00
12775;BME280;6451;42.630;23.382;2022-09-02T00:34:10;94157.91;;;18.86;100.00
12775;BME280;6451;42.630;23.382;2022-09-02T00:36:38;94169.88;;;19.14;100.00
12775;BME280;6451;42.630;23.382;2022-09-02T00:39:05;94176.88;;;19.26;100.00
12775;BME280;6451;42.630;23.382;2022-09-02T00:41:36;94174.59;;;19.13;100.00
12775;BME280;6451;42.630;23.382;2022-09-02T00:44:06;94184.00;;;19.16;100.00
12775;BME280;6451;42.630;23.382;2022-09-02T00:46:35;94175.03;;;19.08;100.00
12775;BME280;6451;42.630;23.382;2022-09-02T00:49:07;94167.19;;;19.07;100.00
12775;BME280;6451;42.630;23.382;2022-09-02T00:51:41;94179.28;;;19.20;100.00
12775;BME280;6451;42.630;23.382;2022-09-02T00:54:12;94171.38;;;19.22;100.00
12775;BME280;6451;42.630;23.382;2022-09-02T00:56:41;94170.25;;;19.20;100.00
12775;BME280;6451;42.630;23.382;2022-09-02T00:59:13;94174.13;;;19.26;100.00
12775;BME280;6451;42.630;23.382;2022-09-02T01:01:40;94178.81;;;19.29;100.00
12775;BME280;6451;42.630;23.382;2022-09-02T01:04:07;94179.97;;;19.31;100.00
12775;BME280;6451;42.630;23.382;2022-09-02T01:06:34;94183.13;;;19.30;100.00
12775;BME280;6451;42.630;23.382;2022-09-02T01:09:09;94167.03;;;19.28;100.00
12775;BME280;6451;42.630;23.382;2022-09-02T01:11:40;94175.59;;;19.37;100.00
12775;BME280;6451;42.630;23.382;2022-09-02T01:14:07;94170.44;;;19.39;100.00
12775;BME280;6451;42.630;23.382;2022-09-02T01:16:40;94161.88;;;19.34;100.00
12775;BME280;6451;42.630;23.382;2022-09-02T01:19:16;94164.88;;;19.47;100.00
12775;BME280;6451;42.630;23.382;2022-09-02T01:21:49;94172.34;;;19.46;100.00
12775;BME280;6451;42.630;23.382;2022-09-02T01:24:18;94162.19;;;19.39;100.00
12775;BME280;6451;42.630;23.382;2022-09-02T01:26:46;94164.50;;;19.48;100.00
12775;BME280;6451;42.630;23.382;2022-09-02T01:29:14;94166.84;;;19.50;100.00
12775;BME280;6451;42.630;23.382;2022-09-02T01:31:42;94164.50;;;19.48;100.00
12775;BME280;6451;42.630;23.382;2022-09-02T01:34:09;94145.31;;;19.37;100.00
12775;BME280;6451;42.630;23.382;2022-09-02T01:36:36;94164.44;;;19.55;100.00
12775;BME280;6451;42.630;23.382;2022-09-02T01:39:06;94166.84;;;19.46;100.00
12775;BME280;6451;42.630;23.382;2022-09-02T01:41:33;94165.34;;;19.41;100.00
12775;BME280;6451;42.630;23.382;2022-09-02T01:43:59;94113.25;;;19.20;100.00
12775;BME280;6451;42.630;23.382;2022-09-02T01:46:26;94151.53;;;19.45;100.00
12775;BME280;6451;42.630;23.382;2022-09-02T01:48:53;94142.56;;;19.41;100.00
12775;BME280;6451;42.630;23.382;2022-09-02T01:51:21;94149.63;;;19.38;100.00
12775;BME280;6451;42.630;23.382;2022-09-02T01:53:48;94144.97;;;19.32;100.00
12775;BME280;6451;42.630;23.382;2022-09-02T01:56:16;94127.22;;;19.40;100.00
12775;BME280;6451;42.630;23.382;2022-09-02T01:58:43;94123.25;;;19.44;100.00
12775;BME280;6451;42.630;23.382;2022-09-02T02:01:10;94118.22;;;19.36;100.00
12775;BME280;6451;42.630;23.382;2022-09-02T02:03:38;94116.28;;;19.33;100.00
12775;BME280;6451;42.630;23.382;2022-09-02T02:06:08;94122.03;;;19.45;100.00
12775;BME280;6451;42.630;23.382;2022-09-02T02:08:36;94126.75;;;19.49;100.00
12775;BME280;6451;42.630;23.382;2022-09-02T02:11:03;94080.97;;;19.24;100.00
12775;BME280;6451;42.630;23.382;2022-09-02T02:13:31;94119.63;;;19.51;100.00
12775;BME280;6451;42.630;23.382;2022-09-02T02:15:58;94126.34;;;19.47;100.00
12775;BME280;6451;42.630;23.382;2022-09-02T02:18:25;94115.06;;;19.37;100.00
12775;BME280;6451;42.630;23.382;2022-09-02T02:20:52;94128.81;;;19.37;100.00
12775;BME280;6451;42.630;23.382;2022-09-02T02:23:19;94134.66;;;19.43;100.00
12775;BME280;6451;42.630;23.382;2022-09-02T02:25:49;94113.91;;;19.31;100.00
12775;BME280;6451;42.630;23.382;2022-09-02T02:28:16;94130.06;;;19.29;100.00
12775;BME280;6451;42.630;23.382;2022-09-02T02:30:44;94128.63;;;19.14;100.00
12775;BME280;6451;42.630;23.382;2022-09-02T02:33:11;94134.13;;;19.14;100.00
12775;BME280;6451;42.630;23.382;2022-09-02T02:35:38;94141.22;;;19.11;100.00
12775;BME280;6451;42.630;23.382;2022-09-02T02:38:04;94147.47;;;19.15;100.00
12775;BME280;6451;42.630;23.382;2022-09-02T02:40:32;94149.13;;;19.06;100.00
12775;BME280;6451;42.630;23.382;2022-09-02T02:42:59;94144.03;;;19.01;100.00
12775;BME280;6451;42.630;23.382;2022-09-02T02:45:26;94130.38;;;18.90;100.00
12775;BME280;6451;42.630;23.382;2022-09-02T02:47:55;94152.25;;;19.08;100.00
12775;BME280;6451;42.630;23.382;2022-09-02T02:50:23;94139.69;;;19.07;100.00
12775;BME280;6451;42.630;23.382;2022-09-02T02:52:52;94151.50;;;19.04;100.00
12775;BME280;6451;42.630;23.382;2022-09-02T02:55:22;94153.47;;;19.03;100.00
12775;BME280;6451;42.630;23.382;2022-09-02T02:57:49;94148.03;;;18.96;100.00
12775;BME280;6451;42.630;23.382;2022-09-02T03:00:19;94144.13;;;18.90;100.00
12775;BME280;6451;42.630;23.382;2022-09-02T03:02:48;94136.41;;;18.71;100.00
12775;BME280;6451;42.630;23.382;2022-09-02T03:05:17;94152.06;;;18.77;100.00
12775;BME280;6451;42.630;23.382;2022-09-02T03:07:43;94154.03;;;18.80;100.00
12775;BME280;6451;42.630;23.382;2022-09-02T03:10:11;94145.81;;;18.73;100.00
12775;BME280;6451;42.630;23.382;2022-09-02T03:12:39;94155.63;;;18.74;100.00
12775;BME280;6451;42.630;23.382;2022-09-02T03:15:08;94146.59;;;18.74;100.00
12775;BME280;6451;42.630;23.382;2022-09-02T03:17:36;94149.41;;;18.67;100.00
12775;BME280;6451;42.630;23.382;2022-09-02T03:20:04;94147.84;;;18.66;100.00
12775;BME280;6451;42.630;23.382;2022-09-02T03:22:34;94150.97;;;18.60;100.00
12775;BME280;6451;42.630;23.382;2022-09-02T03:25:04;94143.53;;;18.57;100.00
12775;BME280;6451;42.630;23.382;2022-09-02T03:27:31;94140.81;;;18.54;100.00
12775;BME280;6451;42.630;23.382;2022-09-02T03:29:59;94157.34;;;18.43;100.00
12775;BME280;6451;42.630;23.382;2022-09-02T03:32:25;94153.06;;;18.42;100.00
12775;BME280;6451;42.630;23.382;2022-09-02T03:34:52;94138.16;;;18.36;100.00
12775;BME280;6451;42.630;23.382;2022-09-02T03:37:19;94140.88;;;18.40;100.00
12775;BME280;6451;42.630;23.382;2022-09-02T03:39:48;94152.28;;;18.42;100.00
12775;BME280;6451;42.630;23.382;2022-09-02T03:42:14;94164.81;;;18.39;100.00
12775;BME280;6451;42.630;23.382;2022-09-02T03:44:41;94164.44;;;18.41;100.00
12775;BME280;6451;42.630;23.382;2022-09-02T03:47:09;94162.88;;;18.32;100.00
12775;BME280;6451;42.630;23.382;2022-09-02T03:49:38;94171.53;;;18.31;100.00
12775;BME280;6451;42.630;23.382;2022-09-02T03:52:05;94175.09;;;18.24;100.00
12775;BME280;6451;42.630;23.382;2022-09-02T03:54:32;94177.81;;;18.35;100.00
12775;BME280;6451;42.630;23.382;2022-09-02T03:57:00;94186.03;;;18.42;100.00
12775;BME280;6451;42.630;23.382;2022-09-02T03:59:28;94192.28;;;18.43;100.00
12775;BME280;6451;42.630;23.382;2022-09-02T04:01:55;94184.84;;;18.40;100.00
12775;BME280;6451;42.630;23.382;2022-09-02T04:04:22;94197.78;;;18.43;100.00
12775;BME280;6451;42.630;23.382;2022-09-02T04:06:49;94198.97;;;18.42;100.00
12775;BME280;6451;42.630;23.382;2022-09-02T04:09:16;94204.91;;;18.33;100.00
12775;BME280;6451;42.630;23.382;2022-09-02T04:11:42;94198.97;;;18.38;100.00
12775;BME280;6451;42.630;23.382;2022-09-02T04:14:11;94203.72;;;18.30;100.00
12775;BME280;6451;42.630;23.382;2022-09-02T04:16:37;94214.66;;;18.45;100.00
12775;BME280;6451;42.630;23.382;2022-09-02T04:19:05;94189.53;;;18.43;100.00
12775;BME280;6451;42.630;23.382;2022-09-02T04:21:35;94215.03;;;18.50;100.00
12775;BME280;6451;42.630;23.382;2022-09-02T04:24:03;94195.44;;;18.41;100.00
12775;BME280;6451;42.630;23.382;2022-09-02T04:26:30;94212.25;;;18.54;100.00
12775;BME280;6451;42.630;23.382;2022-09-02T04:28:57;94186.41;;;18.41;100.00
12775;BME280;6451;42.630;23.382;2022-09-02T04:31:26;94231.47;;;18.54;100.00
12775;BME280;6451;42.630;23.382;2022-09-02T04:33:56;94225.97;;;18.57;100.00
12775;BME280;6451;42.630;23.382;2022-09-02T04:36:24;94212.69;;;18.45;100.00
12775;BME280;6451;42.630;23.382;2022-09-02T04:38:52;94234.19;;;18.72;100.00
12775;BME280;6451;42.630;23.382;2022-09-02T04:41:21;94227.91;;;18.71;100.00
12775;BME280;6451;42.630;23.382;2022-09-02T04:43:49;94231.72;;;18.92;100.00
12775;BME280;6451;42.630;23.382;2022-09-02T04:46:17;94231.34;;;18.86;100.00
12775;BME280;6451;42.630;23.382;2022-09-02T04:48:47;94233.72;;;18.87;100.00
12775;BME280;6451;42.630;23.382;2022-09-02T04:51:16;94231.72;;;18.95;100.00
12775;BME280;6451;42.630;23.382;2022-09-02T04:53:44;94232.50;;;18.92;100.00
12775;BME280;6451;42.630;23.382;2022-09-02T04:56:13;94228.97;;;18.95;100.00
12775;BME280;6451;42.630;23.382;2022-09-02T04:58:41;94227.34;;;18.98;100.00
12775;BME280;6451;42.630;23.382;2022-09-02T05:01:11;94218.06;;;18.74;100.00
12775;BME280;6451;42.630;23.382;2022-09-02T05:03:38;94229.75;;;18.96;100.00
12775;BME280;6451;42.630;23.382;2022-09-02T05:06:08;94228.19;;;18.95;100.00
12775;BME280;6451;42.630;23.382;2022-09-02T05:08:37;94227.28;;;19.08;100.00
12775;BME280;6451;42.630;23.382;2022-09-02T05:11:05;94226.88;;;19.13;100.00
12775;BME280;6451;42.630;23.382;2022-09-02T05:13:33;94218.19;;;19.15;100.00
12775;BME280;6451;42.630;23.382;2022-09-02T05:16:00;94228.41;;;19.18;100.00
12775;BME280;6451;42.630;23.382;2022-09-02T05:18:27;94230.38;;;19.17;100.00
12775;BME280;6451;42.630;23.382;2022-09-02T05:20:55;94228.88;;;19.06;100.00
12775;BME280;6451;42.630;23.382;2022-09-02T05:23:24;94234.19;;;19.34;100.00
12775;BME280;6451;42.630;23.382;2022-09-02T05:25:50;94230.25;;;19.32;100.00
12775;BME280;6451;42.630;23.382;2022-09-02T05:28:17;94212.28;;;19.20;100.00
12775;BME280;6451;42.630;23.382;2022-09-02T05:30:44;94228.91;;;19.58;100.00
12775;BME280;6451;42.630;23.382;2022-09-02T05:33:13;94221.78;;;19.64;100.00
12775;BME280;6451;42.630;23.382;2022-09-02T05:35:40;94227.66;;;19.66;100.00
12775;BME280;6451;42.630;23.382;2022-09-02T05:38:13;94230.38;;;19.69;100.00
12775;BME280;6451;42.630;23.382;2022-09-02T05:40:42;94225.56;;;19.81;100.00
12775;BME280;6451;42.630;23.382;2022-09-02T05:43:09;94228.91;;;19.99;100.00
12775;BME280;6451;42.630;23.382;2022-09-02T05:45:42;94220.28;;;19.97;100.00
12775;BME280;6451;42.630;23.382;2022-09-02T05:48:09;94215.84;;;20.07;100.00
12775;BME280;6451;42.630;23.382;2022-09-02T05:50:49;94220.16;;;20.08;100.00
12775;BME280;6451;42.630;23.382;2022-09-02T05:53:17;94217.19;;;19.95;100.00
12775;BME280;6451;42.630;23.382;2022-09-02T05:55:45;94221.50;;;19.92;100.00
12775;BME280;6451;42.630;23.382;2022-09-02T05:58:12;94210.00;;;19.63;100.00
12775;BME280;6451;42.630;23.382;2022-09-02T06:00:40;94223.69;;;19.70;100.00
12775;BME280;6451;42.630;23.382;2022-09-02T06:03:06;94221.19;;;19.87;100.00
12775;BME280;6451;42.630;23.382;2022-09-02T06:05:33;94220.66;;;19.99;100.00
12775;BME280;6451;42.630;23.382;2022-09-02T06:08:02;94208.38;;;20.07;100.00
12775;BME280;6451;42.630;23.382;2022-09-02T06:10:29;94214.41;;;19.95;100.00
12775;BME280;6451;42.630;23.382;2022-09-02T06:12:58;94213.81;;;20.14;100.00
12775;BME280;6451;42.630;23.382;2022-09-02T06:15:25;94220.16;;;20.08;100.00
12775;BME280;6451;42.630;23.382;2022-09-02T06:17:55;94216.41;;;20.28;100.00
12775;BME280;6451;42.630;23.382;2022-09-02T06:20:24;94212.94;;;20.24;100.00
12775;BME280;6451;42.630;23.382;2022-09-02T06:22:53;94212.00;;;20.35;100.00
12775;BME280;6451;42.630;23.382;2022-09-02T06:25:20;94210.34;;;20.44;100.00
12775;BME280;6451;42.630;23.382;2022-09-02T06:27:47;94199.94;;;20.25;100.00
12775;BME280;6451;42.630;23.382;2022-09-02T06:30:16;94223.13;;;20.27;100.00
12775;BME280;6451;42.630;23.382;2022-09-02T06:32:43;94223.00;;;20.00;100.00
12775;BME280;6451;42.630;23.382;2022-09-02T06:35:10;94226.50;;;20.05;100.00
12775;BME280;6451;42.630;23.382;2022-09-02T06:37:38;94222.59;;;20.02;100.00
12775;BME280;6451;42.630;23.382;2022-09-02T06:40:06;94232.38;;;20.07;100.00
12775;BME280;6451;42.630;23.382;2022-09-02T06:42:33;94226.47;;;20.08;100.00
12775;BME280;6451;42.630;23.382;2022-09-02T06:45:00;94240.34;;;19.97;100.00
12775;BME280;6451;42.630;23.382;2022-09-02T06:47:29;94238.59;;;20.14;100.00
12775;BME280;6451;42.630;23.382;2022-09-02T06:49:57;94238.94;;;20.20;100.00
12775;BME280;6451;42.630;23.382;2022-09-02T06:52:24;94245.44;;;20.37;100.00
12775;BME280;6451;42.630;23.382;2022-09-02T06:54:51;94241.44;;;20.45;100.00
12775;BME280;6451;42.630;23.382;2022-09-02T06:57:19;94235.91;;;20.48;100.00
12775;BME280;6451;42.630;23.382;2022-09-02T06:59:46;94243.81;;;20.43;100.00
12775;BME280;6451;42.630;23.382;2022-09-02T07:02:13;94225.44;;;20.29;100.00
12775;BME280;6451;42.630;23.382;2022-09-02T07:04:42;94248.81;;;20.55;100.00
12775;BME280;6451;42.630;23.382;2022-09-02T07:07:26;94234.44;;;20.37;100.00
12775;BME280;6451;42.630;23.382;2022-09-02T07:09:53;94237.22;;;20.33;100.00
12775;BME280;6451;42.630;23.382;2022-09-02T07:12:22;94229.84;;;20.23;100.00
12775;BME280;6451;42.630;23.382;2022-09-02T07:14:51;94253.78;;;20.30;100.00
12775;BME280;6451;42.630;23.382;2022-09-02T07:17:18;94253.00;;;20.29;100.00
12775;BME280;6451;42.630;23.382;2022-09-02T07:19:49;94253.78;;;20.30;100.00
12775;BME280;6451;42.630;23.382;2022-09-02T07:22:17;94232.25;;;20.21;100.00
12775;BME280;6451;42.630;23.382;2022-09-02T07:24:43;94251.31;;;20.39;100.00
12775;BME280;6451;42.630;23.382;2022-09-02T07:27:10;94253.00;;;20.33;100.00
12775;BME280;6451;42.630;23.382;2022-09-02T07:29:38;94264.94;;;20.57;100.00
12775;BME280;6451;42.630;23.382;2022-09-02T07:32:08;94258.59;;;20.60;100.00
12775;BME280;6451;42.630;23.382;2022-09-02T07:34:35;94250.53;;;20.76;100.00
12775;BME280;6451;42.630;23.382;2022-09-02T07:37:03;94237.25;;;20.67;100.00
12775;BME280;6451;42.630;23.382;2022-09-02T07:39:31;94257.81;;;20.59;100.00
12775;BME280;6451;42.630;23.382;2022-09-02T07:41:58;94256.25;;;20.58;100.00
12775;BME280;6451;42.630;23.382;2022-09-02T07:44:25;94247.47;;;20.70;100.00
12775;BME280;6451;42.630;23.382;2022-09-02T07:46:51;94245.09;;;20.99;100.00
12775;BME280;6451;42.630;23.382;2022-09-02T07:49:19;94250.16;;;21.04;100.00
12775;BME280;6451;42.630;23.382;2022-09-02T07:51:48;94241.97;;;21.28;100.00
12775;BME280;6451;42.630;23.382;2022-09-02T07:54:20;94251.41;;;21.27;100.00
12775;BME280;6451;42.630;23.382;2022-09-02T07:56:47;94250.66;;;21.23;100.00
12775;BME280;6451;42.630;23.382;2022-09-02T07:59:15;94249.53;;;21.20;100.00
12775;BME280;6451;42.630;23.382;2022-09-02T08:01:42;94258.91;;;21.26;100.00
12775;BME280;6451;42.630;23.382;2022-09-02T08:04:10;94269.97;;;21.23;100.00
12775;BME280;6451;42.630;23.382;2022-09-02T08:06:38;94264.81;;;20.98;100.00
12775;BME280;6451;42.630;23.382;2022-09-02T08:09:07;94259.38;;;21.21;100.00
12775;BME280;6451;42.630;23.382;2022-09-02T08:11:37;94248.75;;;21.20;100.00
12775;BME280;6451;42.630;23.382;2022-09-02T08:14:05;94266.72;;;21.01;100.00
12775;BME280;6451;42.630;23.382;2022-09-02T08:16:32;94256.19;;;20.65;100.00
12775;BME280;6451;42.630;23.382;2022-09-02T08:18:59;94270.84;;;20.89;100.00
12775;BME280;6451;42.630;23.382;2022-09-02T08:21:26;94262.16;;;20.91;100.00
12775;BME280;6451;42.630;23.382;2022-09-02T08:23:53;94247.56;;;20.90;100.00
12775;BME280;6451;42.630;23.382;2022-09-02T08:26:22;94278.84;;;21.10;100.00
12775;BME280;6451;42.630;23.382;2022-09-02T08:28:51;94263.59;;;20.72;100.00
12775;BME280;6451;42.630;23.382;2022-09-02T08:31:17;94275.75;;;20.74;100.00
12775;BME280;6451;42.630;23.382;2022-09-02T08:33:44;94272.88;;;20.51;100.00
12775;BME280;6451;42.630;23.382;2022-09-02T08:36:11;94255.66;;;20.74;100.00
12775;BME280;6451;42.630;23.382;2022-09-02T08:38:40;94272.84;;;20.85;100.00
12775;BME280;6451;42.630;23.382;2022-09-02T08:41:13;94266.34;;;21.02;100.00
12775;BME280;6451;42.630;23.382;2022-09-02T08:43:44;94257.38;;;21.22;100.00
12775;BME280;6451;42.630;23.382;2022-09-02T08:46:15;94257.31;;;20.98;100.00
12775;BME280;6451;42.630;23.382;2022-09-02T08:48:48;94260.22;;;21.18;100.00
12775;BME280;6451;42.630;23.382;2022-09-02T08:51:20;94253.56;;;21.43;100.00
12775;BME280;6451;42.630;23.382;2022-09-02T08:53:52;94254.34;;;21.43;100.00
12775;BME280;6451;42.630;23.382;2022-09-02T08:56:20;94248.03;;;21.43;100.00
12775;BME280;6451;42.630;23.382;2022-09-02T08:58:50;94257.13;;;21.67;100.00
12775;BME280;6451;42.630;23.382;2022-09-02T09:01:25;94234.06;;;21.53;100.00
12775;BME280;6451;42.630;23.382;2022-09-02T09:04:15;94258.09;;;22.03;100.00
12775;BME280;6451;42.630;23.382;2022-09-02T09:06:52;94248.69;;;22.01;100.00
12775;BME280;6451;42.630;23.382;2022-09-02T09:09:26;94256.59;;;21.99;100.00
12775;BME280;6451;42.630;23.382;2022-09-02T09:12:02;94251.38;;;22.28;100.00
12775;BME280;6451;42.630;23.382;2022-09-02T09:14:38;94239.69;;;22.40;100.00
12775;BME280;6451;42.630;23.382;2022-09-02T09:17:15;94240.19;;;22.35;100.00
12775;BME280;6451;42.630;23.382;2022-09-02T09:19:48;94239.44;;;21.87;100.00
12775;BME280;6451;42.630;23.382;2022-09-02T09:22:19;94183.34;;;21.44;100.00
12775;BME280;6451;42.630;23.382;2022-09-02T09:24:48;94242.31;;;22.04;100.00
12775;BME280;6451;42.630;23.382;2022-09-02T09:27:17;94239.31;;;22.38;100.00
12775;BME280;6451;42.630;23.382;2022-09-02T09:29:46;94238.69;;;22.50;100.00
12775;BME280;6451;42.630;23.382;2022-09-02T09:32:20;94220.44;;;23.12;100.00
12775;BME280;6451;42.630;23.382;2022-09-02T09:34:59;94232.78;;;23.08;100.00
12775;BME280;6451;42.630;23.382;2022-09-02T09:37:30;94223.44;;;23.01;100.00
12775;BME280;6451;42.630;23.382;2022-09-02T09:39:57;94234.97;;;23.16;100.00
12775;BME280;6451;42.630;23.382;2022-09-02T09:42:30;94225.75;;;23.55;100.00
12775;BME280;6451;42.630;23.382;2022-09-02T09:44:57;94211.28;;;23.97;100.00
12775;BME280;6451;42.630;23.382;2022-09-02T09:47:27;94216.16;;;23.60;100.00
12775;BME280;6451;42.630;23.382;2022-09-02T09:50:11;94223.16;;;23.48;100.00
12775;BME280;6451;42.630;23.382;2022-09-02T09:52:38;94214.78;;;23.68;100.00
12775;BME280;6451;42.630;23.382;2022-09-02T09:55:12;94215.13;;;23.87;100.00
12775;BME280;6451;42.630;23.382;2022-09-02T09:57:41;94209.16;;;23.88;100.00
12775;BME280;6451;42.630;23.382;2022-09-02T10:00:20;94225.63;;;23.79;100.00
12775;BME280;6451;42.630;23.382;2022-09-02T10:02:51;94228.81;;;23.94;100.00
12775;BME280;6451;42.630;23.382;2022-09-02T10:05:30;94226.94;;;24.20;100.00
12775;BME280;6451;42.630;23.382;2022-09-02T10:07:59;94230.72;;;23.64;100.00
12775;BME280;6451;42.630;23.382;2022-09-02T10:10:28;94223.56;;;23.30;100.00
12775;BME280;6451;42.630;23.382;2022-09-02T10:12:58;94161.97;;;23.10;100.00
12775;BME280;6451;42.630;23.382;2022-09-02T10:15:35;94225.00;;;23.55;100.00
12775;BME280;6451;42.630;23.382;2022-09-02T10:18:20;94223.13;;;23.16;100.00
12775;BME280;6451;42.630;23.382;2022-09-02T10:20:56;94231.34;;;23.19;100.00
12775;BME280;6451;42.630;23.382;2022-09-02T10:23:35;94221.91;;;23.17;100.00
12775;BME280;6451;42.630;23.382;2022-09-02T10:26:14;94204.44;;;23.20;100.00
12775;BME280;6451;42.630;23.382;2022-09-02T10:31:49;94210.63;;;23.60;100.00
12775;BME280;6451;42.630;23.382;2022-09-02T10:34:29;94208.44;;;24.00;100.00
12775;BME280;6451;42.630;23.382;2022-09-02T10:37:10;94219.38;;;24.36;100.00
12775;BME280;6451;42.630;23.382;2022-09-02T10:42:51;94179.09;;;23.38;100.00
12775;BME280;6451;42.630;23.382;2022-09-02T10:45:23;94207.06;;;23.92;100.00
12775;BME280;6451;42.630;23.382;2022-09-02T10:48:08;94217.66;;;24.26;100.00
12775;BME280;6451;42.630;23.382;2022-09-02T10:50:45;94226.72;;;23.81;100.00
12775;BME280;6451;42.630;23.382;2022-09-02T10:53:32;94212.88;;;24.27;100.00
12775;BME280;6451;42.630;23.382;2022-09-02T10:56:05;94208.78;;;24.48;100.00
12775;BME280;6451;42.630;23.382;2022-09-02T10:58:43;94218.47;;;24.56;100.00
12775;BME280;6451;42.630;23.382;2022-09-02T11:01:17;94213.75;;;24.82;100.00
12775;BME280;6451;42.630;23.382;2022-09-02T11:03:55;94215.97;;;25.54;100.00
12775;BME280;6451;42.630;23.382;2022-09-02T11:06:28;94202.38;;;25.43;100.00
12775;BME280;6451;42.630;23.382;2022-09-02T11:08:58;94207.16;;;25.30;100.00
12775;BME280;6451;42.630;23.382;2022-09-02T11:11:30;94205.06;;;25.47;100.00
12775;BME280;6451;42.630;23.382;2022-09-02T11:14:03;94195.22;;;24.79;100.00
12775;BME280;6451;42.630;23.382;2022-09-02T11:16:40;94191.13;;;24.42;100.00
12775;BME280;6451;42.630;23.382;2022-09-02T11:19:13;94197.31;;;24.46;100.00
12775;BME280;6451;42.630;23.382;2022-09-02T11:21:57;94199.72;;;24.60;100.00
12775;BME280;6451;42.630;23.382;2022-09-02T11:24:31;94195.50;;;24.55;100.00
12775;BME280;6451;42.630;23.382;2022-09-02T11:27:04;94190.63;;;25.27;100.00
12775;BME280;6451;42.630;23.382;2022-09-02T11:29:42;94193.63;;;25.19;100.00
12775;BME280;6451;42.630;23.382;2022-09-02T11:32:17;94197.00;;;24.98;100.00
12775;BME280;6451;42.630;23.382;2022-09-02T11:34:47;94197.53;;;24.80;100.00
12775;BME280;6451;42.630;23.382;2022-09-02T11:37:27;94188.59;;;25.02;100.00
12775;BME280;6451;42.630;23.382;2022-09-02T11:39:58;94180.50;;;25.20;100.00
12775;BME280;6451;42.630;23.382;2022-09-02T11:45:45;94162.13;;;24.72;100.00
12775;BME280;6451;42.630;23.382;2022-09-02T11:48:55;94161.91;;;24.91;100.00
12775;BME280;6451;42.630;23.382;2022-09-02T11:51:40;94166.69;;;24.91;100.00
12775;BME280;6451;42.630;23.382;2022-09-02T11:54:16;94151.28;;;25.28;100.00
12775;BME280;6451;42.630;23.382;2022-09-02T11:56:46;94155.38;;;25.49;100.00
12775;BME280;6451;42.630;23.382;2022-09-02T11:59:21;94156.94;;;25.50;100.00
12775;BME280;6451;42.630;23.382;2022-09-02T12:01:49;94165.81;;;25.45;100.00
12775;BME280;6451;42.630;23.382;2022-09-02T12:04:19;94169.94;;;25.28;100.00
12775;BME280;6451;42.630;23.382;2022-09-02T12:07:21;94178.41;;;25.11;100.00
12775;BME280;6451;42.630;23.382;2022-09-02T12:09:50;94169.38;;;24.94;100.00
12775;BME280;6451;42.630;23.382;2022-09-02T12:15:22;94168.97;;;25.09;100.00
12775;BME280;6451;42.630;23.382;2022-09-02T12:18:26;94167.94;;;25.28;100.00
12775;BME280;6451;42.630;23.382;2022-09-02T12:21:05;94162.72;;;25.43;100.00
12775;BME280;6451;42.630;23.382;2022-09-02T12:24:10;94159.16;;;25.42;100.00
12775;BME280;6451;42.630;23.382;2022-09-02T12:29:53;94150.41;;;25.18;100.00
12775;BME280;6451;42.630;23.382;2022-09-02T12:35:30;94144.06;;;25.18;100.00
12775;BME280;6451;42.630;23.382;2022-09-02T12:41:18;94126.94;;;24.81;100.00
12775;BME280;6451;42.630;23.382;2022-09-02T12:44:03;94079.44;;;24.25;100.00
12775;BME280;6451;42.630;23.382;2022-09-02T12:47:00;94122.16;;;24.82;100.00
12775;BME280;6451;42.630;23.382;2022-09-02T12:49:39;94086.50;;;24.67;100.00
12775;BME280;6451;42.630;23.382;2022-09-02T12:52:08;94116.25;;;24.54;100.00
12775;BME280;6451;42.630;23.382;2022-09-02T12:54:42;94114.28;;;24.80;100.00
12775;BME280;6451;42.630;23.382;2022-09-02T12:57:12;94116.03;;;25.00;100.00
12775;BME280;6451;42.630;23.382;2022-09-02T12:59:41;94084.22;;;25.04;100.00
12775;BME280;6451;42.630;23.382;2022-09-02T13:02:35;94124.19;;;25.07;100.00
12775;BME280;6451;42.630;23.382;2022-09-02T13:05:15;94123.63;;;24.86;100.00
12775;BME280;6451;42.630;23.382;2022-09-02T13:11:19;94114.72;;;24.24;100.00
12775;BME280;6451;42.630;23.382;2022-09-02T13:14:18;94115.78;;;24.14;100.00
12775;BME280;6451;42.630;23.382;2022-09-02T13:17:08;94126.28;;;24.06;100.00
12775;BME280;6451;42.630;23.382;2022-09-02T13:19:59;94125.63;;;24.02;100.00
12775;BME280;6451;42.630;23.382;2022-09-02T13:22:57;94120.75;;;23.61;100.00
12775;BME280;6451;42.630;23.382;2022-09-02T13:25:49;94115.94;;;23.33;100.00
12775;BME280;6451;42.630;23.382;2022-09-02T13:28:52;94131.34;;;23.01;100.00
12775;BME280;6451;42.630;23.382;2022-09-02T13:31:23;94136.88;;;22.81;100.00
12775;BME280;6451;42.630;23.382;2022-09-02T13:33:57;94146.72;;;22.46;100.00
12775;BME280;6451;42.630;23.382;2022-09-02T13:36:28;94144.44;;;22.25;100.00